createdAt,value
2023-03-28T00:00:01.651Z,99.99
2023-03-28T00:01:01.642Z,99.99
2023-03-28T00:02:01.638Z,99.99
2023-03-28T00:03:01.672Z,99.99
2023-03-28T00:04:01.712Z,99.99
2023-03-28T00:05:01.607Z,99.99
2023-03-28T00:06:01.898Z,99.99
2023-03-28T00:07:01.591Z,99.99
2023-03-28T00:08:01.624Z,99.99
2023-03-28T00:09:01.601Z,99.99
2023-03-28T00:10:01.593Z,99.99
2023-03-28T00:11:01.535Z,99.99
2023-03-28T00:12:01.537Z,99.99
2023-03-28T00:13:01.515Z,99.55
2023-03-28T00:14:01.569Z,97.81
2023-03-28T00:15:01.505Z,98.13
2023-03-28T00:16:01.819Z,98.24
2023-03-28T00:17:01.476Z,96.66
2023-03-28T00:18:01.546Z,94.55
2023-03-28T00:19:01.449Z,94.12
2023-03-28T00:20:01.490Z,94.44
2023-03-28T00:21:01.441Z,93.98
2023-03-28T00:22:01.444Z,94.44
2023-03-28T00:23:01.409Z,95.77
2023-03-28T00:24:01.407Z,95.81
2023-03-28T00:25:01.415Z,95.39
2023-03-28T00:26:01.544Z,94.34
2023-03-28T00:27:01.395Z,94.51
2023-03-28T00:28:01.367Z,93.77
2023-03-28T00:29:01.627Z,94.55
2023-03-28T00:30:01.340Z,94.76
2023-03-28T00:31:01.388Z,94.51
2023-03-28T00:32:01.395Z,93.77
2023-03-28T00:33:01.377Z,93.80
2023-03-28T00:34:01.375Z,94.51
2023-03-28T00:35:01.312Z,94.97
2023-03-28T00:36:01.647Z,95.39
2023-03-28T00:37:01.291Z,96.55
2023-03-28T00:38:01.295Z,96.45
2023-03-28T00:39:01.262Z,95.39
2023-03-28T00:40:01.244Z,96.13
2023-03-28T00:41:01.217Z,97.08
2023-03-28T00:42:01.215Z,96.77
2023-03-28T00:43:01.211Z,96.77
2023-03-28T00:44:01.223Z,95.92
2023-03-28T00:45:01.185Z,95.92
2023-03-28T00:46:09.093Z,96.55
2023-03-28T00:47:02.196Z,96.77
2023-03-28T00:48:01.182Z,96.66
2023-03-28T00:49:01.146Z,96.13
2023-03-28T00:50:01.195Z,98.35
2023-03-28T00:51:01.114Z,99.99
2023-03-28T00:52:01.135Z,99.99
2023-03-28T00:53:01.109Z,99.99
2023-03-28T00:54:01.096Z,99.99
2023-03-28T00:55:01.082Z,99.99
2023-03-28T00:56:01.208Z,99.99
2023-03-28T00:57:01.079Z,99.99
2023-03-28T00:58:01.043Z,99.99
2023-03-28T00:59:01.030Z,99.99
2023-03-28T01:00:01.028Z,99.99
2023-03-28T01:01:01.009Z,99.99
2023-03-28T01:02:01.062Z,99.99
2023-03-28T01:03:01.035Z,99.99
2023-03-28T01:04:00.984Z,99.99
2023-03-28T01:05:00.989Z,99.99
2023-03-28T01:06:01.065Z,99.99
2023-03-28T01:07:00.949Z,99.99
2023-03-28T01:08:00.984Z,99.99
2023-03-28T01:09:00.941Z,99.99
2023-03-28T01:10:00.913Z,99.99
2023-03-28T01:11:00.912Z,99.99
2023-03-28T01:12:00.886Z,99.99
2023-03-28T01:13:00.876Z,99.99
2023-03-28T01:14:00.923Z,99.99
2023-03-28T01:15:00.884Z,99.99
2023-03-28T01:16:01.028Z,99.99
2023-03-28T01:17:00.837Z,99.99
2023-03-28T01:18:00.839Z,99.99
2023-03-28T01:19:00.815Z,99.99
2023-03-28T01:20:00.878Z,99.99
2023-03-28T01:21:00.799Z,99.99
2023-03-28T01:22:00.782Z,99.99
2023-03-28T01:23:00.771Z,99.99
2023-03-28T01:24:11.719Z,99.99
2023-03-28T01:25:01.783Z,99.99
2023-03-28T01:26:00.944Z,99.99
2023-03-28T01:27:00.731Z,99.99
2023-03-28T01:28:00.714Z,99.99
2023-03-28T01:29:00.711Z,99.99
2023-03-28T01:30:00.706Z,99.99
2023-03-28T01:31:00.687Z,99.99
2023-03-28T01:32:00.733Z,99.99
2023-03-28T01:33:00.684Z,99.99
2023-03-28T01:34:00.652Z,99.99
2023-03-28T01:35:00.663Z,99.99
2023-03-28T01:36:00.876Z,99.99
2023-03-28T01:37:00.623Z,99.99
2023-03-28T01:38:00.649Z,99.99
2023-03-28T01:39:00.602Z,99.99
2023-03-28T01:40:00.630Z,99.99
2023-03-28T01:41:00.590Z,99.99
2023-03-28T01:42:00.564Z,99.99
2023-03-28T01:43:00.561Z,99.99
2023-03-28T01:44:00.601Z,99.99
2023-03-28T01:45:00.536Z,99.99
2023-03-28T01:46:00.795Z,99.99
2023-03-28T01:47:00.514Z,99.99
2023-03-28T01:48:00.539Z,99.99
2023-03-28T01:49:00.497Z,99.99
2023-03-28T01:50:00.531Z,99.99
2023-03-28T01:51:00.471Z,99.99
2023-03-28T01:52:00.477Z,99.99
2023-03-28T01:53:00.452Z,99.99
2023-03-28T01:54:00.437Z,99.99
2023-03-28T01:55:00.429Z,99.99
2023-03-28T01:56:00.652Z,99.99
2023-03-28T01:57:00.525Z,99.99
2023-03-28T01:58:00.406Z,99.99
2023-03-28T01:59:00.404Z,99.99
2023-03-28T02:00:00.374Z,99.99
2023-03-28T02:01:00.383Z,99.99
2023-03-28T02:02:00.449Z,99.99
2023-03-28T02:03:00.542Z,99.99
2023-03-28T02:04:00.330Z,99.99
2023-03-28T02:05:00.326Z,99.99
2023-03-28T02:06:00.525Z,99.99
2023-03-28T02:07:00.301Z,99.99
2023-03-28T02:08:00.332Z,99.99
2023-03-28T02:09:00.280Z,99.99
2023-03-28T02:10:00.268Z,99.99
2023-03-28T02:11:00.267Z,99.99
2023-03-28T02:12:00.288Z,99.99
2023-03-28T02:13:00.241Z,99.99
2023-03-28T02:14:00.267Z,99.99
2023-03-28T02:15:00.236Z,99.99
2023-03-28T02:16:00.447Z,99.99
2023-03-28T02:17:00.215Z,99.99
2023-03-28T02:18:00.312Z,99.99
2023-03-28T02:19:00.180Z,99.99
2023-03-28T02:20:00.200Z,99.99
2023-03-28T02:21:00.173Z,99.99
2023-03-28T02:22:00.152Z,99.99
2023-03-28T02:23:00.142Z,99.99
2023-03-28T02:24:00.154Z,99.99
2023-03-28T02:25:00.152Z,99.99
2023-03-28T02:26:00.268Z,99.99
2023-03-28T02:27:00.128Z,99.99
2023-03-28T02:28:00.143Z,99.99
2023-03-28T02:29:00.105Z,99.99
2023-03-28T02:30:00.069Z,99.99
2023-03-28T02:31:00.094Z,99.99
2023-03-28T02:32:00.165Z,99.99
2023-03-28T02:33:00.086Z,99.99
2023-03-28T02:34:00.036Z,99.99
2023-03-28T02:35:00.018Z,99.99
2023-03-28T02:36:00.273Z,99.99
2023-03-28T02:37:00.007Z,99.99
2023-03-28T02:38:00.019Z,99.99
2023-03-28T02:38:59.975Z,99.99
2023-03-28T02:39:59.973Z,99.99
2023-03-28T02:40:59.954Z,99.99
2023-03-28T02:41:59.942Z,99.99
2023-03-28T02:42:59.940Z,99.99
2023-03-28T02:43:59.977Z,99.99
2023-03-28T02:44:59.915Z,99.99
2023-03-28T02:46:00.123Z,99.99
2023-03-28T02:47:01.298Z,99.99
2023-03-28T02:47:59.917Z,99.99
2023-03-28T02:48:59.873Z,99.99
2023-03-28T02:49:59.900Z,99.99
2023-03-28T02:50:59.869Z,99.99
2023-03-28T02:51:59.845Z,99.99
2023-03-28T02:52:59.828Z,99.99
2023-03-28T02:53:59.820Z,99.99
2023-03-28T02:54:59.812Z,99.99
2023-03-28T02:55:59.963Z,99.99
2023-03-28T02:56:59.821Z,99.99
2023-03-28T02:57:59.801Z,99.99
2023-03-28T02:58:59.767Z,99.99
2023-03-28T02:59:59.772Z,99.99
2023-03-28T03:00:59.815Z,99.99
2023-03-28T03:01:59.778Z,99.99
2023-03-28T03:02:59.753Z,99.99
2023-03-28T03:03:59.821Z,99.99
2023-03-28T03:04:59.701Z,99.99
2023-03-28T03:05:59.842Z,99.99
2023-03-28T03:06:59.682Z,99.99
2023-03-28T03:07:59.722Z,99.99
2023-03-28T03:08:59.664Z,99.99
2023-03-28T03:09:59.647Z,99.99
2023-03-28T03:10:59.658Z,99.99
2023-03-28T03:11:59.633Z,99.99
2023-03-28T03:12:59.622Z,99.99
2023-03-28T03:13:59.638Z,99.99
2023-03-28T03:14:59.599Z,99.99
2023-03-28T03:15:59.829Z,99.99
2023-03-28T03:16:59.587Z,99.99
2023-03-28T03:17:59.595Z,99.99
2023-03-28T03:18:59.568Z,99.99
2023-03-28T03:19:59.590Z,99.99
2023-03-28T03:20:59.554Z,99.99
2023-03-28T03:21:59.520Z,99.99
2023-03-28T03:22:59.512Z,99.99
2023-03-28T03:23:59.538Z,99.99
2023-03-28T03:24:59.492Z,99.99
2023-03-28T03:25:59.683Z,99.99
2023-03-28T03:26:59.531Z,99.99
2023-03-28T03:27:59.454Z,99.99
2023-03-28T03:28:59.447Z,99.99
2023-03-28T03:29:59.455Z,99.99
2023-03-28T03:30:59.491Z,99.91
2023-03-28T03:31:59.485Z,99.80
2023-03-28T03:32:59.448Z,99.99
2023-03-28T03:33:59.387Z,99.99
2023-03-28T03:34:59.394Z,99.99
2023-03-28T03:35:59.672Z,99.99
2023-03-28T03:36:59.369Z,99.99
2023-03-28T03:37:59.413Z,99.28
2023-03-28T03:38:59.340Z,99.99
2023-03-28T03:39:59.325Z,99.49
2023-03-28T03:40:59.335Z,98.75
2023-03-28T03:41:59.317Z,99.32
2023-03-28T03:42:59.312Z,99.99
2023-03-28T03:43:59.332Z,99.99
2023-03-28T03:44:59.276Z,99.91
2023-03-28T03:45:59.638Z,99.75
2023-03-28T03:46:59.256Z,99.43
2023-03-28T03:47:59.321Z,99.54
2023-03-28T03:48:59.241Z,99.32
2023-03-28T03:49:59.260Z,99.99
2023-03-28T03:50:59.224Z,99.99
2023-03-28T03:51:59.228Z,99.99
2023-03-28T03:52:59.203Z,99.99
2023-03-28T03:53:59.176Z,99.99
2023-03-28T03:54:59.173Z,99.99
2023-03-28T03:55:59.377Z,99.99
2023-03-28T03:56:59.192Z,99.99
2023-03-28T03:57:59.145Z,99.99
2023-03-28T03:58:59.132Z,99.99
2023-03-28T03:59:59.114Z,99.99
2023-03-28T04:00:59.109Z,99.99
2023-03-28T04:01:59.158Z,99.99
2023-03-28T04:02:59.134Z,99.99
2023-03-28T04:03:59.164Z,99.99
2023-03-28T04:04:59.062Z,99.99
2023-03-28T04:05:59.231Z,99.99
2023-03-28T04:06:59.080Z,99.99
2023-03-28T04:07:59.102Z,99.99
2023-03-28T04:08:59.020Z,99.99
2023-03-28T04:09:59.010Z,99.99
2023-03-28T04:10:59.001Z,99.99
2023-03-28T04:11:58.991Z,99.99
2023-03-28T04:12:58.977Z,99.99
2023-03-28T04:13:59.031Z,99.99
2023-03-28T04:14:58.973Z,99.99
2023-03-28T04:15:59.123Z,99.99
2023-03-28T04:16:58.935Z,99.99
2023-03-28T04:17:58.989Z,99.99
2023-03-28T04:18:58.926Z,99.99
2023-03-28T04:19:58.937Z,99.99
2023-03-28T04:20:58.899Z,99.99
2023-03-28T04:21:58.880Z,99.99
2023-03-28T04:22:58.874Z,99.99
2023-03-28T04:23:58.860Z,99.99
2023-03-28T04:24:58.860Z,99.99
2023-03-28T04:25:59.319Z,99.99
2023-03-28T04:26:58.834Z,99.99
2023-03-28T04:27:58.823Z,99.99
2023-03-28T04:28:58.824Z,99.99
2023-03-28T04:29:58.810Z,99.99
2023-03-28T04:30:58.806Z,99.99
2023-03-28T04:31:58.839Z,99.99
2023-03-28T04:32:58.797Z,99.99
2023-03-28T04:33:58.761Z,99.99
2023-03-28T04:34:58.750Z,99.99
2023-03-28T04:35:59.161Z,99.99
2023-03-28T04:36:58.728Z,99.99
2023-03-28T04:37:58.748Z,99.99
2023-03-28T04:38:58.722Z,99.99
2023-03-28T04:39:58.697Z,99.99
2023-03-28T04:40:58.690Z,99.99
2023-03-28T04:41:58.781Z,99.99
2023-03-28T04:42:58.662Z,99.99
2023-03-28T04:43:58.710Z,99.99
2023-03-28T04:44:58.645Z,99.99
2023-03-28T04:45:58.882Z,99.99
2023-03-28T04:46:58.634Z,99.99
2023-03-28T04:47:58.621Z,99.99
2023-03-28T04:48:58.600Z,99.99
2023-03-28T04:49:58.662Z,99.99
2023-03-28T04:50:58.587Z,99.99
2023-03-28T04:51:58.724Z,99.99
2023-03-28T04:52:58.566Z,99.99
2023-03-28T04:53:58.554Z,99.99
2023-03-28T04:54:58.539Z,99.99
2023-03-28T04:55:58.833Z,99.99
2023-03-28T04:56:58.548Z,99.99
2023-03-28T04:57:58.516Z,99.99
2023-03-28T04:58:58.501Z,99.99
2023-03-28T04:59:58.490Z,99.99
2023-03-28T05:00:58.873Z,99.99
2023-03-28T05:01:58.572Z,99.99
2023-03-28T05:02:58.541Z,99.99
2023-03-28T05:03:58.455Z,99.99
2023-03-28T05:04:58.429Z,99.99
2023-03-28T05:05:58.421Z,99.99
2023-03-28T05:06:58.409Z,99.99
2023-03-28T05:07:58.481Z,99.99
2023-03-28T05:08:58.395Z,99.99
2023-03-28T05:09:58.392Z,99.99
2023-03-28T05:10:58.595Z,99.99
2023-03-28T05:11:58.357Z,99.99
2023-03-28T05:12:58.345Z,99.99
2023-03-28T05:13:58.372Z,99.99
2023-03-28T05:14:58.343Z,99.99
2023-03-28T05:15:58.341Z,99.99
2023-03-28T05:16:58.299Z,99.99
2023-03-28T05:17:58.365Z,99.99
2023-03-28T05:18:59.065Z,99.99
2023-03-28T05:19:58.315Z,99.99
2023-03-28T05:20:58.471Z,99.99
2023-03-28T05:21:58.255Z,99.99
2023-03-28T05:22:58.236Z,99.99
2023-03-28T05:23:58.249Z,99.99
2023-03-28T05:24:58.233Z,99.99
2023-03-28T05:25:58.257Z,99.99
2023-03-28T05:26:58.193Z,99.99
2023-03-28T05:27:58.188Z,99.99
2023-03-28T05:28:58.176Z,99.99
2023-03-28T05:29:58.171Z,99.99
2023-03-28T05:30:58.335Z,99.99
2023-03-28T05:31:58.312Z,99.99
2023-03-28T05:32:58.250Z,99.99
2023-03-28T05:33:58.124Z,99.99
2023-03-28T05:34:58.113Z,99.99
2023-03-28T05:35:58.126Z,99.99
2023-03-28T05:36:58.118Z,99.99
2023-03-28T05:37:58.122Z,99.99
2023-03-28T05:38:58.074Z,99.99
2023-03-28T05:39:58.084Z,99.99
2023-03-28T05:40:58.198Z,99.99
2023-03-28T05:41:58.046Z,99.99
2023-03-28T05:42:58.039Z,99.99
2023-03-28T05:43:58.073Z,99.99
2023-03-28T05:44:58.005Z,99.99
2023-03-28T05:45:58.031Z,99.99
2023-03-28T05:46:57.987Z,99.99
2023-03-28T05:47:58.020Z,99.99
2023-03-28T05:48:57.964Z,99.99
2023-03-28T05:49:57.997Z,99.99
2023-03-28T05:50:58.152Z,99.99
2023-03-28T05:51:57.935Z,99.99
2023-03-28T05:52:57.922Z,99.99
2023-03-28T05:53:57.925Z,99.99
2023-03-28T05:54:57.909Z,99.99
2023-03-28T05:55:57.933Z,99.99
2023-03-28T05:56:57.902Z,99.99
2023-03-28T05:57:57.889Z,99.99
2023-03-28T05:58:57.855Z,99.99
2023-03-28T05:59:57.849Z,99.99
2023-03-28T06:00:58.035Z,99.99
2023-03-28T06:01:57.862Z,99.99
2023-03-28T06:02:57.856Z,99.99
2023-03-28T06:03:57.814Z,99.99
2023-03-28T06:04:57.878Z,99.99
2023-03-28T06:05:57.788Z,99.99
2023-03-28T06:06:57.777Z,99.99
2023-03-28T06:07:57.817Z,99.99
2023-03-28T06:08:57.750Z,99.99
2023-03-28T06:09:57.741Z,99.99
2023-03-28T06:10:57.860Z,99.99
2023-03-28T06:11:57.740Z,99.99
2023-03-28T06:12:57.708Z,99.99
2023-03-28T06:13:57.744Z,99.99
2023-03-28T06:14:57.690Z,99.99
2023-03-28T06:15:57.679Z,99.99
2023-03-28T06:16:57.724Z,99.72
2023-03-28T06:17:57.727Z,99.78
2023-03-28T06:19:10.445Z,98.89
2023-03-28T06:19:58.707Z,97.41
2023-03-28T06:20:57.806Z,97.03
2023-03-28T06:21:57.614Z,97.09
2023-03-28T06:22:57.601Z,96.36
2023-03-28T06:23:57.594Z,95.15
2023-03-28T06:24:57.581Z,94.73
2023-03-28T06:25:57.661Z,94.54
2023-03-28T06:26:57.572Z,93.32
2023-03-28T06:27:57.573Z,93.22
2023-03-28T06:28:57.539Z,92.92
2023-03-28T06:29:57.535Z,91.62
2023-03-28T06:30:57.623Z,90.59
2023-03-28T06:31:57.757Z,89.96
2023-03-28T06:32:57.535Z,90.94
2023-03-28T06:33:57.495Z,93.15
2023-03-28T06:34:57.480Z,93.97
2023-03-28T06:35:57.498Z,92.32
2023-03-28T06:36:57.467Z,90.59
2023-03-28T06:37:57.523Z,88.52
2023-03-28T06:38:57.439Z,87.74
2023-03-28T06:39:57.468Z,86.60
2023-03-28T06:40:57.478Z,87.66
2023-03-28T06:41:57.410Z,87.35
2023-03-28T06:42:57.399Z,87.04
2023-03-28T06:43:57.449Z,86.41
2023-03-28T06:44:57.379Z,87.00
2023-03-28T06:45:57.404Z,83.62
2023-03-28T06:46:57.352Z,82.65
2023-03-28T06:47:57.425Z,85.41
2023-03-28T06:48:57.356Z,87.60
2023-03-28T06:49:57.358Z,88.29
2023-03-28T06:50:57.429Z,88.01
2023-03-28T06:51:57.306Z,84.48
2023-03-28T06:52:57.292Z,84.72
2023-03-28T06:53:57.286Z,83.39
2023-03-28T06:54:57.278Z,81.82
2023-03-28T06:55:57.296Z,79.11
2023-03-28T06:56:57.290Z,78.07
2023-03-28T06:57:57.240Z,78.56
2023-03-28T06:58:57.223Z,78.28
2023-03-28T06:59:57.253Z,78.21
2023-03-28T07:00:57.342Z,79.67
2023-03-28T07:01:57.244Z,82.90
2023-03-28T07:02:57.272Z,80.88
2023-03-28T07:03:57.491Z,79.87
2023-03-28T07:04:57.171Z,79.74
2023-03-28T07:05:57.164Z,82.24
2023-03-28T07:06:57.146Z,82.10
2023-03-28T07:07:57.170Z,81.72
2023-03-28T07:08:57.122Z,82.70
2023-03-28T07:09:57.118Z,85.63
2023-03-28T07:10:57.125Z,86.15
2023-03-28T07:11:57.104Z,84.44
2023-03-28T07:12:57.081Z,84.22
2023-03-28T07:13:57.105Z,84.47
2023-03-28T07:14:57.076Z,83.74
2023-03-28T07:15:57.073Z,81.58
2023-03-28T07:16:57.080Z,83.95
2023-03-28T07:17:57.073Z,83.67
2023-03-28T07:18:57.053Z,83.11
2023-03-28T07:19:57.025Z,81.58
2023-03-28T07:21:03.854Z,80.36
2023-03-28T07:21:57.997Z,82.25
2023-03-28T07:22:56.974Z,85.25
2023-03-28T07:23:56.981Z,86.62
2023-03-28T07:24:56.954Z,88.65
2023-03-28T07:25:56.988Z,90.99
2023-03-28T07:27:11.849Z,91.69
2023-03-28T07:27:57.926Z,89.93
2023-03-28T07:28:56.909Z,90.05
2023-03-28T07:29:56.934Z,91.66
2023-03-28T07:30:57.046Z,92.67
2023-03-28T07:31:57.007Z,90.64
2023-03-28T07:33:05.304Z,90.16
2023-03-28T07:33:57.940Z,90.89
2023-03-28T07:34:56.863Z,90.22
2023-03-28T07:35:56.894Z,90.18
2023-03-28T07:36:56.831Z,89.88
2023-03-28T07:37:56.843Z,91.27
2023-03-28T07:38:56.931Z,88.92
2023-03-28T07:39:56.806Z,89.78
2023-03-28T07:40:56.783Z,91.50
2023-03-28T07:41:56.777Z,91.85
2023-03-28T07:42:56.790Z,92.35
2023-03-28T07:43:56.771Z,94.04
2023-03-28T07:44:56.864Z,94.83
2023-03-28T07:45:56.757Z,94.73
2023-03-28T07:46:56.723Z,95.25
2023-03-28T07:47:56.835Z,93.53
2023-03-28T07:48:56.698Z,93.01
2023-03-28T07:49:56.708Z,91.77
2023-03-28T07:50:56.742Z,91.87
2023-03-28T07:51:56.670Z,91.87
2023-03-28T07:52:56.652Z,90.28
2023-03-28T07:53:56.647Z,88.54
2023-03-28T07:54:56.634Z,89.97
2023-03-28T07:55:56.642Z,90.05
2023-03-28T07:56:56.697Z,90.68
2023-03-28T07:57:56.607Z,91.85
2023-03-28T07:58:56.592Z,90.49
2023-03-28T07:59:56.585Z,88.71
2023-03-28T08:00:56.600Z,90.18
2023-03-28T08:01:56.567Z,90.49
2023-03-28T08:02:56.687Z,89.34
2023-03-28T08:03:56.750Z,89.84
2023-03-28T08:04:56.526Z,86.19
2023-03-28T08:05:56.621Z,87.00
2023-03-28T08:06:56.541Z,85.50
2023-03-28T08:07:56.501Z,84.17
2023-03-28T08:08:56.509Z,84.72
2023-03-28T08:09:58.863Z,80.71
2023-03-28T08:10:56.487Z,81.30
2023-03-28T08:11:56.474Z,80.95
2023-03-28T08:12:56.444Z,80.68
2023-03-28T08:13:56.443Z,80.99
2023-03-28T08:14:56.420Z,82.07
2023-03-28T08:15:56.491Z,82.38
2023-03-28T08:16:56.414Z,81.20
2023-03-28T08:17:56.424Z,80.43
2023-03-28T08:19:09.804Z,80.85
2023-03-28T08:19:57.419Z,80.96
2023-03-28T08:20:56.360Z,80.76
2023-03-28T08:21:56.371Z,83.83
2023-03-28T08:22:56.350Z,85.29
2023-03-28T08:23:56.330Z,75.98
2023-03-28T08:24:56.378Z,72.96
2023-03-28T08:25:56.307Z,73.17
2023-03-28T08:26:56.317Z,72.44
2023-03-28T08:27:56.292Z,70.81
2023-03-28T08:28:56.280Z,73.03
2023-03-28T08:29:56.264Z,78.80
2023-03-28T08:30:56.337Z,80.57
2023-03-28T08:31:56.254Z,79.80
2023-03-28T08:32:56.270Z,78.94
2023-03-28T08:33:56.248Z,74.35
2023-03-28T08:34:56.223Z,73.21
2023-03-28T08:35:56.277Z,77.93
2023-03-28T08:36:56.209Z,77.93
2023-03-28T08:37:56.177Z,74.21
2023-03-28T08:38:56.175Z,74.35
2023-03-28T08:39:56.154Z,72.51
2023-03-28T08:40:56.141Z,73.97
2023-03-28T08:41:56.135Z,73.72
2023-03-28T08:42:56.160Z,73.58
2023-03-28T08:43:56.110Z,73.58
2023-03-28T08:44:56.102Z,67.22
2023-03-28T08:45:56.113Z,68.43
2023-03-28T08:46:56.117Z,66.33
2023-03-28T08:47:56.098Z,67.13
2023-03-28T08:48:56.096Z,64.17
2023-03-28T08:49:56.047Z,61.16
2023-03-28T08:50:56.050Z,65.59
2023-03-28T08:51:56.052Z,64.55
2023-03-28T08:52:56.019Z,65.86
2023-03-28T08:53:56.002Z,65.84
2023-03-28T08:54:56.285Z,66.31
2023-03-28T08:55:55.992Z,71.57
2023-03-28T08:56:56.013Z,75.81
2023-03-28T08:57:55.961Z,74.52
2023-03-28T08:58:55.954Z,68.16
2023-03-28T08:59:55.940Z,72.23
2023-03-28T09:00:56.000Z,74.66
2023-03-28T09:01:56.011Z,76.89
2023-03-28T09:02:56.003Z,77.90
2023-03-28T09:03:56.078Z,72.51
2023-03-28T09:05:02.073Z,69.95
2023-03-28T09:05:56.889Z,65.58
2023-03-28T09:06:55.914Z,67.55
2023-03-28T09:07:56.217Z,72.76
2023-03-28T09:08:55.847Z,74.43
2023-03-28T09:09:55.841Z,73.18
2023-03-28T09:10:55.829Z,73.28
2023-03-28T09:11:55.827Z,73.21
2023-03-28T09:12:55.830Z,75.46
2023-03-28T09:13:55.794Z,73.32
2023-03-28T09:14:55.786Z,74.32
2023-03-28T09:15:55.789Z,71.17
2023-03-28T09:16:55.774Z,70.51
2023-03-28T09:17:55.812Z,72.69
2023-03-28T09:18:55.759Z,74.91
2023-03-28T09:19:55.723Z,75.81
2023-03-28T09:20:55.720Z,74.95
2023-03-28T09:22:05.049Z,72.11
2023-03-28T09:22:56.693Z,69.20
2023-03-28T09:23:55.707Z,67.25
2023-03-28T09:24:55.715Z,66.94
2023-03-28T09:25:55.659Z,64.58
2023-03-28T09:26:55.665Z,63.96
2023-03-28T09:27:55.639Z,68.60
2023-03-28T09:28:55.631Z,67.33
2023-03-28T09:29:55.618Z,66.28
2023-03-28T09:30:55.625Z,64.65
2023-03-28T09:31:55.681Z,65.63
2023-03-28T09:32:55.662Z,64.04
2023-03-28T09:33:55.592Z,62.62
2023-03-28T09:34:55.580Z,64.75
2023-03-28T09:35:55.570Z,61.38
2023-03-28T09:36:55.749Z,60.34
2023-03-28T09:37:55.542Z,60.16
2023-03-28T09:38:55.532Z,56.78
2023-03-28T09:39:55.541Z,61.54
2023-03-28T09:40:55.504Z,62.18
2023-03-28T09:41:55.489Z,59.89
2023-03-28T09:42:55.530Z,59.42
2023-03-28T09:43:57.302Z,56.03
2023-03-28T09:44:55.473Z,56.60
2023-03-28T09:45:55.500Z,56.18
2023-03-28T09:46:55.443Z,58.26
2023-03-28T09:47:55.540Z,63.09
2023-03-28T09:48:55.542Z,56.45
2023-03-28T09:50:02.464Z,58.91
2023-03-28T09:50:56.393Z,57.71
2023-03-28T09:51:55.430Z,59.58
2023-03-28T09:52:55.377Z,62.21
2023-03-28T09:53:55.410Z,61.17
2023-03-28T09:54:55.389Z,59.74
2023-03-28T09:56:04.499Z,55.32
2023-03-28T09:56:56.384Z,55.04
2023-03-28T09:57:55.316Z,58.23
2023-03-28T09:58:55.312Z,58.03
2023-03-28T09:59:55.297Z,60.00
2023-03-28T10:00:55.360Z,59.09
2023-03-28T10:01:55.385Z,55.12
2023-03-28T10:02:55.304Z,54.21
2023-03-28T10:03:55.264Z,57.01
2023-03-28T10:04:55.338Z,57.79
2023-03-28T10:05:55.230Z,56.99
2023-03-28T10:06:55.244Z,56.83
2023-03-28T10:07:55.227Z,58.62
2023-03-28T10:08:55.211Z,59.66
2023-03-28T10:09:55.198Z,59.97
2023-03-28T10:10:55.188Z,60.70
2023-03-28T10:11:55.208Z,59.63
2023-03-28T10:12:55.194Z,61.04
2023-03-28T10:13:55.156Z,60.00
2023-03-28T10:14:55.137Z,60.21
2023-03-28T10:15:55.153Z,62.05
2023-03-28T10:16:55.116Z,57.71
2023-03-28T10:17:55.157Z,58.05
2023-03-28T10:18:55.179Z,62.98
2023-03-28T10:19:55.082Z,61.08
2023-03-28T10:20:55.073Z,57.95
2023-03-28T10:21:55.056Z,57.92
2023-03-28T10:22:55.051Z,56.70
2023-03-28T10:23:55.043Z,57.61
2023-03-28T10:24:55.070Z,59.74
2023-03-28T10:25:55.026Z,61.01
2023-03-28T10:26:55.008Z,61.94
2023-03-28T10:27:55.013Z,61.81
2023-03-28T10:28:54.988Z,59.42
2023-03-28T10:29:54.972Z,59.84
2023-03-28T10:30:55.026Z,56.00
2023-03-28T10:31:54.962Z,56.62
2023-03-28T10:32:55.067Z,55.74
2023-03-28T10:33:54.929Z,56.65
2023-03-28T10:34:54.942Z,57.04
2023-03-28T10:35:54.942Z,55.22
2023-03-28T10:36:54.922Z,53.72
2023-03-28T10:37:54.887Z,53.04
2023-03-28T10:38:54.878Z,55.43
2023-03-28T10:39:54.867Z,56.13
2023-03-28T10:40:54.911Z,56.86
2023-03-28T10:41:54.843Z,54.91
2023-03-28T10:42:54.877Z,52.03
2023-03-28T10:43:54.844Z,50.78
2023-03-28T10:44:54.824Z,50.49
2023-03-28T10:45:54.824Z,53.53
2023-03-28T10:46:54.844Z,49.77
2023-03-28T10:47:54.893Z,52.00
2023-03-28T10:48:54.797Z,51.75
2023-03-28T10:49:54.756Z,52.06
2023-03-28T10:50:54.753Z,52.40
2023-03-28T10:51:54.758Z,50.84
2023-03-28T10:52:54.729Z,51.72
2023-03-28T10:53:54.710Z,54.24
2023-03-28T10:54:54.728Z,52.15
2023-03-28T10:55:54.697Z,51.74
2023-03-28T10:56:54.762Z,54.39
2023-03-28T10:57:54.687Z,56.24
2023-03-28T10:58:54.663Z,58.07
2023-03-28T10:59:54.671Z,55.72
2023-03-28T11:00:54.662Z,58.67
2023-03-28T11:01:54.659Z,57.76
2023-03-28T11:02:54.687Z,56.62
2023-03-28T11:03:54.688Z,53.44
2023-03-28T11:04:54.606Z,55.02
2023-03-28T11:06:08.098Z,56.76
2023-03-28T11:06:55.593Z,55.98
2023-03-28T11:07:54.561Z,57.82
2023-03-28T11:08:54.555Z,57.61
2023-03-28T11:09:54.550Z,55.77
2023-03-28T11:10:54.533Z,55.66
2023-03-28T11:11:54.514Z,55.72
2023-03-28T11:12:56.156Z,57.76
2023-03-28T11:13:54.495Z,54.19
2023-03-28T11:14:54.502Z,54.24
2023-03-28T11:15:54.530Z,56.03
2023-03-28T11:16:54.476Z,55.93
2023-03-28T11:17:54.475Z,55.27
2023-03-28T11:18:54.457Z,54.21
2023-03-28T11:19:54.440Z,55.56
2023-03-28T11:20:54.422Z,58.05
2023-03-28T11:21:54.411Z,58.47
2023-03-28T11:23:05.107Z,55.17
2023-03-28T11:23:55.385Z,54.13
2023-03-28T11:24:54.393Z,58.26
2023-03-28T11:25:54.385Z,58.44
2023-03-28T11:27:02.195Z,55.38
2023-03-28T11:27:55.365Z,56.08
2023-03-28T11:28:54.341Z,56.03
2023-03-28T11:29:54.324Z,58.80
2023-03-28T11:30:54.347Z,59.73
2023-03-28T11:31:54.344Z,57.37
2023-03-28T11:32:54.307Z,57.92
2023-03-28T11:33:54.289Z,56.54
2023-03-28T11:34:54.281Z,57.81
2023-03-28T11:35:54.280Z,59.16
2023-03-28T11:36:54.264Z,57.50
2023-03-28T11:37:54.245Z,55.48
2023-03-28T11:38:54.235Z,57.87
2023-03-28T11:39:54.224Z,59.30
2023-03-28T11:40:54.205Z,55.46
2023-03-28T11:41:54.193Z,59.16
2023-03-28T11:42:54.218Z,56.00
2023-03-28T11:43:54.170Z,59.32
2023-03-28T11:44:54.175Z,60.12
2023-03-28T11:45:54.190Z,59.06
2023-03-28T11:46:54.227Z,59.19
2023-03-28T11:47:54.171Z,57.95
2023-03-28T11:48:54.148Z,59.68
2023-03-28T11:49:54.114Z,62.24
2023-03-28T11:50:54.110Z,60.46
2023-03-28T11:51:54.083Z,59.63
2023-03-28T11:52:54.076Z,57.58
2023-03-28T11:53:54.066Z,58.07
2023-03-28T11:54:54.069Z,52.89
2023-03-28T11:55:54.038Z,55.48
2023-03-28T11:56:54.071Z,54.42
2023-03-28T11:57:54.019Z,54.19
2023-03-28T11:58:54.010Z,52.53
2023-03-28T11:59:53.997Z,50.33
2023-03-28T12:00:54.046Z,48.99
2023-03-28T12:01:53.991Z,51.84
2023-03-28T12:02:54.243Z,53.18
2023-03-28T12:03:54.103Z,52.28
2023-03-28T12:04:53.949Z,56.34
2023-03-28T12:06:02.573Z,56.73
2023-03-28T12:07:02.350Z,53.85
2023-03-28T12:07:54.907Z,55.28
2023-03-28T12:08:53.902Z,50.98
2023-03-28T12:09:53.891Z,50.51
2023-03-28T12:10:53.891Z,53.33
2023-03-28T12:11:53.881Z,54.86
2023-03-28T12:12:53.895Z,54.03
2023-03-28T12:14:09.001Z,56.39
2023-03-28T12:14:54.831Z,57.45
2023-03-28T12:15:53.821Z,56.13
2023-03-28T12:16:53.887Z,57.89
2023-03-28T12:17:53.866Z,56.21
2023-03-28T12:18:53.874Z,55.90
2023-03-28T12:19:53.969Z,51.99
2023-03-28T12:20:53.771Z,54.03
2023-03-28T12:21:53.761Z,49.63
2023-03-28T12:22:53.764Z,53.96
2023-03-28T12:23:53.744Z,55.04
2023-03-28T12:24:53.767Z,51.21
2023-03-28T12:25:53.723Z,49.94
2023-03-28T12:26:55.947Z,50.43
2023-03-28T12:27:53.691Z,53.20
2023-03-28T12:28:53.765Z,53.31
2023-03-28T12:29:53.701Z,49.40
2023-03-28T12:30:53.741Z,51.60
2023-03-28T12:31:53.658Z,54.08
2023-03-28T12:32:53.705Z,51.10
2023-03-28T12:33:53.630Z,53.25
2023-03-28T12:34:53.639Z,52.17
2023-03-28T12:35:53.692Z,52.61
2023-03-28T12:36:53.638Z,55.48
2023-03-28T12:37:53.583Z,56.08
2023-03-28T12:38:55.665Z,56.88
2023-03-28T12:39:54.934Z,56.05
2023-03-28T12:40:53.576Z,53.59
2023-03-28T12:41:53.551Z,54.60
2023-03-28T12:42:53.547Z,54.34
2023-03-28T12:43:53.518Z,58.44
2023-03-28T12:44:53.511Z,56.96
2023-03-28T12:45:53.522Z,57.45
2023-03-28T12:46:53.531Z,55.30
2023-03-28T12:47:53.545Z,57.53
2023-03-28T12:48:53.496Z,53.20
2023-03-28T12:49:53.454Z,53.80
2023-03-28T12:50:53.446Z,55.15
2023-03-28T12:51:53.606Z,54.24